createdAt,value
2023-03-12T00:02:10.524Z,100797.53
2023-03-12T00:04:37.218Z,100804.34
2023-03-12T00:07:09.829Z,100799.22
2023-03-12T00:09:38.086Z,100805.25
2023-03-12T00:12:06.036Z,100804.41
2023-03-12T00:14:32.876Z,100795.78
2023-03-12T00:16:59.736Z,100798.38
2023-03-12T00:19:26.480Z,100799.22
2023-03-12T00:21:53.143Z,100799.13
2023-03-12T00:24:19.757Z,100802.47
2023-03-12T00:26:47.166Z,100806.72
2023-03-12T00:29:19.597Z,100806.63
2023-03-12T00:31:47.159Z,100810.84
2023-03-12T00:34:13.786Z,100805.72
2023-03-12T00:36:46.010Z,100809.09
2023-03-12T00:39:12.665Z,100809.09
2023-03-12T00:41:39.294Z,100805.69
2023-03-12T00:44:09.349Z,100801.38
2023-03-12T00:46:36.020Z,100806.53
2023-03-12T00:49:02.685Z,100804.00
2023-03-12T00:51:29.608Z,100802.31
2023-03-12T00:53:56.527Z,100805.72
2023-03-12T00:56:23.180Z,100809.13
2023-03-12T00:58:49.893Z,100813.38
2023-03-12T01:01:17.182Z,100815.13
2023-03-12T01:03:47.384Z,100809.97
2023-03-12T01:06:14.096Z,100812.56
2023-03-12T01:08:40.841Z,100816.84
2023-03-12T01:11:07.444Z,100815.97
2023-03-12T01:13:34.368Z,100824.63
2023-03-12T01:16:01.038Z,100828.84
2023-03-12T01:18:27.688Z,100826.25
2023-03-12T01:20:57.162Z,100836.50
2023-03-12T01:23:26.888Z,100836.66
2023-03-12T01:25:55.614Z,100835.91
2023-03-12T01:28:23.645Z,100836.91
2023-03-12T01:30:50.457Z,100836.19
2023-03-12T01:33:23.935Z,100832.91
2023-03-12T01:35:51.013Z,100833.88
2023-03-12T01:38:22.844Z,100830.63
2023-03-12T01:40:49.438Z,100830.72
2023-03-12T01:43:31.076Z,100841.94
2023-03-12T01:46:06.880Z,100825.69
2023-03-12T01:48:44.569Z,100825.72
2023-03-12T01:51:13.739Z,100824.09
2023-03-12T01:53:43.841Z,100825.84
2023-03-12T01:56:12.079Z,100824.97
2023-03-12T01:58:43.184Z,100833.53
2023-03-12T02:01:09.845Z,100845.50
2023-03-12T02:03:37.358Z,100838.56
2023-03-12T02:06:09.016Z,100849.66
2023-03-12T02:08:41.771Z,100848.09
2023-03-12T02:11:11.456Z,100847.28
2023-03-12T02:13:38.146Z,100841.44
2023-03-12T02:16:05.280Z,100840.78
2023-03-12T02:18:42.590Z,100853.66
2023-03-12T02:21:23.794Z,100862.28
2023-03-12T02:23:53.136Z,100870.00
2023-03-12T02:26:24.357Z,100869.13
2023-03-12T02:28:51.917Z,100875.13
2023-03-12T02:31:22.882Z,100879.38
2023-03-12T02:33:50.545Z,100872.50
2023-03-12T02:36:23.443Z,100874.25
2023-03-12T02:38:52.619Z,100881.16
2023-03-12T02:41:32.741Z,100883.75
2023-03-12T02:44:11.842Z,100888.06
2023-03-12T02:46:45.240Z,100884.78
2023-03-12T02:49:19.354Z,100895.22
2023-03-12T02:51:47.067Z,100892.69
2023-03-12T02:54:15.291Z,100885.84
2023-03-12T02:56:43.082Z,100888.41
2023-03-12T02:59:10.534Z,100894.41
2023-03-12T03:01:38.412Z,100897.88
2023-03-12T03:04:09.719Z,100896.13
2023-03-12T03:06:42.455Z,100893.56
2023-03-12T03:09:12.479Z,100904.63
2023-03-12T03:11:39.149Z,100901.97
2023-03-12T03:14:11.418Z,100899.41
2023-03-12T03:16:38.173Z,100898.72
2023-03-12T03:19:05.616Z,100900.44
2023-03-12T03:21:32.763Z,100905.44
2023-03-12T03:23:59.543Z,100908.88
2023-03-12T03:26:27.264Z,100909.56
2023-03-12T03:28:54.000Z,100913.69
2023-03-12T03:31:24.950Z,100916.25
2023-03-12T03:33:52.477Z,100920.38
2023-03-12T03:36:19.378Z,100925.63
2023-03-12T03:38:52.807Z,100924.88
2023-03-12T03:41:21.086Z,100925.72
2023-03-12T03:43:47.938Z,100932.44
2023-03-12T03:46:15.030Z,100932.47
2023-03-12T03:48:42.097Z,100935.06
2023-03-12T03:51:15.861Z,100931.53
2023-03-12T03:53:42.787Z,100937.56
2023-03-12T03:56:16.214Z,100929.94
2023-03-12T03:58:46.093Z,100941.84
2023-03-12T04:01:14.481Z,100944.34
2023-03-12T04:03:41.214Z,100939.13
2023-03-12T04:06:08.463Z,100951.06
2023-03-12T04:08:42.700Z,100951.03
2023-03-12T04:11:15.688Z,100954.56
2023-03-12T04:13:42.917Z,100957.94
2023-03-12T04:16:10.193Z,100958.75
2023-03-12T04:18:37.541Z,100950.16
2023-03-12T04:21:06.188Z,100957.81
2023-03-12T04:23:35.273Z,100960.31
2023-03-12T04:26:02.096Z,100961.16
2023-03-12T04:28:28.815Z,100968.06
2023-03-12T04:31:00.976Z,100970.69
2023-03-12T04:33:29.099Z,100967.19
2023-03-12T04:35:56.488Z,100958.44
2023-03-12T04:38:33.132Z,100966.25
2023-03-12T04:41:01.966Z,100969.63
2023-03-12T04:43:29.340Z,100973.06
2023-03-12T04:45:57.301Z,100973.00
2023-03-12T04:48:24.283Z,100970.41
2023-03-12T04:50:51.452Z,100969.44
2023-03-12T04:53:18.225Z,100975.56
2023-03-12T04:55:45.213Z,100980.56
2023-03-12T04:58:11.886Z,100979.09
2023-03-12T05:00:40.366Z,100977.25
2023-03-12T05:03:11.696Z,100980.63
2023-03-12T05:05:41.459Z,100985.78
2023-03-12T05:08:08.356Z,100986.50
2023-03-12T05:10:41.690Z,100990.75
2023-03-12T05:13:23.407Z,100990.75
2023-03-12T05:15:51.975Z,100997.63
2023-03-12T05:18:21.665Z,100996.69
2023-03-12T05:21:17.778Z,100998.25
2023-03-12T05:23:48.021Z,100994.81
2023-03-12T05:26:24.904Z,100990.41
2023-03-12T05:28:52.273Z,100992.97
2023-03-12T05:31:19.528Z,100987.78
2023-03-12T05:33:48.674Z,100986.88
2023-03-12T05:36:16.636Z,100990.94
2023-03-12T05:38:45.129Z,100988.28
2023-03-12T05:41:23.402Z,100991.59
2023-03-12T05:43:50.159Z,100994.00
2023-03-12T05:46:17.393Z,100999.03
2023-03-12T05:48:44.127Z,100987.81
2023-03-12T05:51:11.002Z,100996.31
2023-03-12T05:53:37.776Z,100999.72
2023-03-12T05:56:10.899Z,100993.72
2023-03-12T05:58:38.213Z,100991.97
2023-03-12T06:01:15.789Z,101006.53
2023-03-12T06:03:43.307Z,101005.66
2023-03-12T06:06:10.745Z,101004.81
2023-03-12T06:08:37.896Z,101000.59
2023-03-12T06:11:08.261Z,100998.06
2023-03-12T06:13:37.954Z,100994.72
2023-03-12T06:16:29.777Z,100999.09
2023-03-12T06:19:01.583Z,100997.50
2023-03-12T06:21:31.320Z,101006.13
2023-03-12T06:23:58.835Z,101011.41
2023-03-12T06:26:26.253Z,101009.00
2023-03-12T06:28:53.796Z,101010.00
2023-03-12T06:31:22.480Z,101012.75
2023-03-12T06:33:49.816Z,101011.22
2023-03-12T06:36:16.855Z,101017.28
2023-03-12T06:38:43.609Z,101017.34
2023-03-12T06:41:22.149Z,101016.59
2023-03-12T06:43:54.554Z,101013.25
2023-03-12T06:46:25.825Z,101026.38
2023-03-12T06:48:56.192Z,101028.13
2023-03-12T06:51:22.917Z,101029.13
2023-03-12T06:53:49.630Z,101037.91
2023-03-12T06:56:16.680Z,101032.09
2023-03-12T06:58:43.400Z,101028.00
2023-03-12T07:01:10.323Z,101029.03
2023-03-12T07:03:37.113Z,101033.44
2023-03-12T07:06:13.652Z,101028.31
2023-03-12T07:08:40.462Z,101034.47
2023-03-12T07:11:07.146Z,101033.78
2023-03-12T07:13:33.816Z,101027.00
2023-03-12T07:16:00.690Z,101035.75
2023-03-12T07:18:27.737Z,101029.09
2023-03-12T07:20:54.599Z,101027.47
2023-03-12T07:23:21.821Z,101020.81
2023-03-12T07:25:49.269Z,101034.72
2023-03-12T07:28:16.574Z,101035.69
2023-03-12T07:30:46.384Z,101022.88
2023-03-12T07:33:19.228Z,101036.78
2023-03-12T07:35:50.206Z,101029.16
2023-03-12T07:38:18.438Z,101037.13
2023-03-12T07:40:45.187Z,101034.72
2023-03-12T07:43:13.005Z,101029.63
2023-03-12T07:45:40.112Z,101045.22
2023-03-12T07:48:08.956Z,101048.63
2023-03-12T07:50:36.814Z,101049.50
2023-03-12T07:53:04.737Z,101058.97
2023-03-12T07:55:33.069Z,101053.00
2023-03-12T07:57:59.978Z,101044.44
2023-03-12T08:00:27.912Z,101043.59
2023-03-12T08:02:55.053Z,101051.38
2023-03-12T08:05:24.877Z,101051.41
2023-03-12T08:07:52.843Z,101056.50
2023-03-12T08:10:23.270Z,101059.16
2023-03-12T08:12:50.195Z,101054.81
2023-03-12T08:15:17.340Z,101064.28
2023-03-12T08:17:44.517Z,101060.00
2023-03-12T08:20:11.903Z,101058.31
2023-03-12T08:22:39.713Z,101059.19
2023-03-12T08:25:12.698Z,101064.31
2023-03-12T08:27:42.232Z,101060.88
2023-03-12T08:30:09.813Z,101071.25
2023-03-12T08:32:36.769Z,101063.41
2023-03-12T08:35:05.511Z,101065.13
2023-03-12T08:37:33.089Z,101058.28
2023-03-12T08:40:00.305Z,101069.47
2023-03-12T08:42:27.158Z,101062.59
2023-03-12T08:44:54.034Z,101069.47
2023-03-12T08:47:20.675Z,101068.59
2023-03-12T08:49:50.735Z,101065.06
2023-03-12T08:52:17.490Z,101056.41
2023-03-12T08:54:44.309Z,101054.53
2023-03-12T08:57:11.080Z,101050.94
2023-03-12T08:59:37.886Z,101046.56
2023-03-12T09:02:05.278Z,101049.06
2023-03-12T09:04:32.098Z,101042.19
2023-03-12T09:07:01.289Z,101036.19
2023-03-12T09:09:28.078Z,101048.63
2023-03-12T09:11:55.058Z,101048.69
2023-03-12T09:17:11.762Z,101044.06
2023-03-12T09:19:38.409Z,101055.94
2023-03-12T09:22:05.133Z,101049.59
2023-03-12T09:24:32.134Z,101044.47
2023-03-12T09:26:58.834Z,101041.63
2023-03-12T09:29:25.860Z,101039.59
2023-03-12T09:31:52.636Z,101041.66
2023-03-12T09:34:19.583Z,101038.25
2023-03-12T09:36:47.329Z,101033.31
2023-03-12T09:39:14.186Z,101034.75
2023-03-12T09:41:47.787Z,101029.50
2023-03-12T09:44:17.532Z,101035.41
2023-03-12T09:47:06.193Z,101041.84
2023-03-12T09:49:36.239Z,101035.88
2023-03-12T09:52:22.123Z,101036.69
2023-03-12T09:54:54.987Z,101031.53
2023-03-12T09:57:26.888Z,101034.06
2023-03-12T09:59:54.793Z,101035.38
2023-03-12T10:02:50.771Z,101033.25
2023-03-12T10:05:27.066Z,101024.81
2023-03-12T10:08:17.406Z,101011.47
2023-03-12T10:10:55.443Z,101017.44
2023-03-12T10:13:46.434Z,101004.91
2023-03-12T10:16:31.856Z,101005.16
2023-03-12T10:19:07.140Z,100999.56
2023-03-12T10:21:39.893Z,100999.56
2023-03-12T10:24:31.805Z,100998.91
2023-03-12T10:27:02.046Z,100999.31
2023-03-12T10:29:44.657Z,100995.81
2023-03-12T10:32:17.083Z,101000.28
2023-03-12T10:34:51.150Z,100997.72
2023-03-12T10:37:36.057Z,100989.03
2023-03-12T10:40:05.550Z,100985.34
2023-03-12T10:42:35.400Z,100977.28
2023-03-12T10:45:24.683Z,100978.75
2023-03-12T10:47:57.646Z,100978.72
2023-03-12T10:50:32.775Z,100979.41
2023-03-12T10:53:22.636Z,100978.50
2023-03-12T10:56:04.669Z,100982.09
2023-03-12T10:58:40.276Z,100975.00
2023-03-12T11:01:22.135Z,100961.84
2023-03-12T11:03:55.063Z,100963.91
2023-03-12T11:06:25.892Z,100959.88
2023-03-12T11:09:21.523Z,100962.72
2023-03-12T11:11:50.900Z,100953.22
2023-03-12T11:14:26.128Z,100956.53
2023-03-12T11:16:54.554Z,100954.34
2023-03-12T11:19:44.292Z,100949.00
2023-03-12T11:22:17.634Z,100942.88
2023-03-12T11:25:04.502Z,100936.03
2023-03-12T11:28:00.990Z,100942.91
2023-03-12T11:30:44.670Z,100939.72
2023-03-12T11:33:14.681Z,100931.16
2023-03-12T11:36:02.166Z,100925.63
2023-03-12T11:38:38.540Z,100901.88
2023-03-12T11:41:44.584Z,100899.84
2023-03-12T11:44:45.567Z,100926.13
2023-03-12T11:47:33.580Z,100912.00
2023-03-12T11:50:18.891Z,100917.00
2023-03-12T11:53:04.349Z,100920.69
2023-03-12T11:55:56.761Z,100912.63
2023-03-12T11:59:00.953Z,100911.06
2023-03-12T12:01:48.694Z,100892.88
2023-03-12T12:04:53.930Z,100899.25
2023-03-12T12:07:39.463Z,100898.00
2023-03-12T12:10:12.563Z,100898.78
2023-03-12T12:13:13.687Z,100899.75
2023-03-12T12:16:15.090Z,100897.22
2023-03-12T12:18:50.844Z,100878.56
2023-03-12T12:21:32.957Z,100874.28
2023-03-12T12:24:16.373Z,100862.81
2023-03-12T12:27:06.280Z,100845.47
2023-03-12T12:30:14.967Z,100850.53
2023-03-12T12:33:09.525Z,100854.44
2023-03-12T12:35:41.801Z,100853.44
2023-03-12T12:38:30.661Z,100841.53
2023-03-12T12:41:23.096Z,100835.38
2023-03-12T12:43:59.349Z,100821.34
2023-03-12T12:46:32.885Z,100813.78
2023-03-12T12:49:01.793Z,100806.91
2023-03-12T12:51:40.258Z,100799.75
2023-03-12T12:54:26.072Z,100801.22
2023-03-12T12:57:03.682Z,100801.25
2023-03-12T12:59:43.675Z,100806.59
2023-03-12T13:02:41.753Z,100802.00
2023-03-12T13:05:41.947Z,100804.50
2023-03-12T13:08:29.095Z,100792.41
2023-03-12T13:10:57.996Z,100796.69
2023-03-12T13:13:32.555Z,100789.72
2023-03-12T13:16:30.175Z,100797.81
2023-03-12T13:19:26.587Z,100795.47
2023-03-12T13:22:10.797Z,100783.06
2023-03-12T13:25:13.587Z,100777.16
2023-03-12T13:27:51.797Z,100771.91
2023-03-12T13:30:33.759Z,100778.44
2023-03-12T13:33:03.209Z,100777.56
2023-03-12T13:35:38.078Z,100777.72
2023-03-12T13:38:12.923Z,100776.81
2023-03-12T13:41:01.249Z,100767.38
2023-03-12T13:43:57.554Z,100756.19
2023-03-12T13:46:35.574Z,100757.88
2023-03-12T13:49:22.056Z,100766.72
2023-03-12T13:52:09.527Z,100766.69
2023-03-12T13:54:42.658Z,100764.28
2023-03-12T13:57:33.007Z,100740.72
2023-03-12T14:00:03.253Z,100722.41
2023-03-12T14:02:41.190Z,100741.41
2023-03-12T14:05:11.135Z,100746.72
2023-03-12T14:07:51.434Z,100747.69
2023-03-12T14:10:49.575Z,100741.16
2023-03-12T14:13:26.993Z,100748.94
2023-03-12T14:16:04.084Z,100742.88
2023-03-12T14:18:34.706Z,100743.56
2023-03-12T14:21:07.173Z,100725.53
2023-03-12T14:23:40.375Z,100726.38
2023-03-12T14:26:09.641Z,100734.13
2023-03-12T14:28:41.652Z,100728.06
2023-03-12T14:31:14.685Z,100716.75
2023-03-12T14:33:58.909Z,100716.75
2023-03-12T14:36:42.974Z,100716.78
2023-03-12T14:39:25.393Z,100714.28
2023-03-12T14:42:04.626Z,100716.19
2023-03-12T14:44:33.475Z,100717.28
2023-03-12T14:47:12.479Z,100721.63
2023-03-12T14:49:53.496Z,100727.94
2023-03-12T14:52:26.854Z,100733.34
2023-03-12T14:55:09.113Z,100732.50
2023-03-12T14:57:35.920Z,100722.16
2023-03-12T15:00:03.181Z,100710.06
2023-03-12T15:02:31.638Z,100707.41
2023-03-12T15:05:04.597Z,100708.28
2023-03-12T15:07:38.911Z,100701.34
2023-03-12T15:10:16.478Z,100690.16
2023-03-12T15:12:49.381Z,100694.44
2023-03-12T15:15:44.624Z,100684.16
2023-03-12T15:18:23.493Z,100677.25
2023-03-12T15:20:50.982Z,100681.56
2023-03-12T15:23:19.378Z,100684.19
2023-03-12T15:25:46.266Z,100671.34
2023-03-12T15:28:15.883Z,100671.34
2023-03-12T15:30:50.983Z,100667.94
2023-03-12T15:33:18.841Z,100663.56
2023-03-12T15:36:18.526Z,100667.13
2023-03-12T15:38:49.711Z,100661.91
2023-03-12T15:41:45.846Z,100662.06
2023-03-12T15:44:19.913Z,100656.03
2023-03-12T15:46:52.937Z,100642.38
2023-03-12T15:49:35.578Z,100659.69
2023-03-12T15:52:47.237Z,100668.31
2023-03-12T15:55:13.872Z,100659.03
2023-03-12T15:57:55.527Z,100665.16
2023-03-12T16:00:42.450Z,100664.34
2023-03-12T16:03:19.310Z,100649.56
2023-03-12T16:05:50.818Z,100642.72
2023-03-12T16:08:29.739Z,100636.66
2023-03-12T16:10:57.654Z,100640.19
2023-03-12T16:13:34.700Z,100628.06
2023-03-12T16:16:02.244Z,100634.97
2023-03-12T16:18:29.039Z,100627.19
2023-03-12T16:20:55.809Z,100628.97
2023-03-12T16:23:28.239Z,100630.69
2023-03-12T16:25:56.614Z,100620.34
2023-03-12T16:28:24.203Z,100610.88
2023-03-12T16:30:52.348Z,100618.56
2023-03-12T16:33:23.931Z,100613.44
2023-03-12T16:35:51.806Z,100620.38
2023-03-12T16:38:18.628Z,100626.44
2023-03-12T16:40:50.335Z,100618.84
2023-03-12T16:43:26.131Z,100601.66
2023-03-12T16:45:54.229Z,100603.41
2023-03-12T16:48:26.927Z,100596.59
2023-03-12T16:51:05.261Z,100609.47
2023-03-12T16:53:32.494Z,100606.09
2023-03-12T16:56:02.018Z,100594.88
2023-03-12T16:58:33.236Z,100597.47
2023-03-12T17:01:07.511Z,100600.94
2023-03-12T17:03:39.258Z,100613.06
2023-03-12T17:06:07.536Z,100613.06
2023-03-12T17:08:37.423Z,100615.66
2023-03-12T17:11:27.158Z,100606.97
2023-03-12T17:14:02.822Z,100611.31
2023-03-12T17:16:32.611Z,100609.59
2023-03-12T17:18:59.590Z,100602.66
2023-03-12T17:21:26.246Z,100588.84
2023-03-12T17:23:55.348Z,100594.00
2023-03-12T17:26:23.580Z,100603.44
2023-03-12T17:28:53.820Z,100598.34
2023-03-12T17:31:30.264Z,100609.63
2023-03-12T17:33:57.005Z,100605.38
2023-03-12T17:36:26.648Z,100603.66
2023-03-12T17:38:59.588Z,100595.03
2023-03-12T17:41:27.512Z,100599.44
2023-03-12T17:43:55.461Z,100596.94
2023-03-12T17:46:22.844Z,100600.41
2023-03-12T17:48:49.687Z,100598.78
2023-03-12T17:51:17.302Z,100604.84
2023-03-12T17:53:48.498Z,100582.41
2023-03-12T17:56:19.460Z,100596.28
2023-03-12T17:58:48.301Z,100596.38
2023-03-12T18:01:16.103Z,100591.25
2023-03-12T18:03:44.730Z,100586.97
2023-03-12T18:06:19.372Z,100593.03
2023-03-12T18:08:46.503Z,100586.19
2023-03-12T18:11:13.279Z,100590.53
2023-03-12T18:13:41.009Z,100591.38
2023-03-12T18:16:09.694Z,100585.34
2023-03-12T18:18:37.692Z,100582.78
2023-03-12T18:21:07.732Z,100567.28
2023-03-12T18:23:40.337Z,100564.66
2023-03-12T18:26:07.433Z,100562.94
2023-03-12T18:28:38.465Z,100550.91
2023-03-12T18:31:35.803Z,100557.75
2023-03-12T18:35:03.317Z,100556.88
2023-03-12T18:37:44.747Z,100523.31
2023-03-12T18:40:23.001Z,100513.88
2023-03-12T18:42:52.627Z,100537.97
2023-03-12T18:45:33.407Z,100558.63
2023-03-12T18:48:08.124Z,100550.03
2023-03-12T18:51:01.653Z,100550.91
2023-03-12T18:53:36.443Z,100551.78
2023-03-12T18:56:19.666Z,100554.38
2023-03-12T19:02:08.950Z,100521.69
2023-03-12T19:11:05.586Z,100530.22
2023-03-12T19:19:50.385Z,100512.94
2023-03-12T19:22:42.477Z,100505.19
2023-03-12T19:34:44.341Z,100477.59
2023-03-12T19:37:50.763Z,100482.75
2023-03-12T19:41:08.680Z,100497.41
2023-03-12T19:53:25.257Z,100482.69
2023-03-12T20:02:30.288Z,100484.31
2023-03-12T20:17:43.016Z,100502.31
2023-03-12T20:23:33.591Z,100509.09
2023-03-12T20:35:06.946Z,100476.06
2023-03-12T20:38:25.861Z,100475.19
2023-03-12T20:41:25.708Z,100448.50
2023-03-12T20:44:17.051Z,100469.06
2023-03-12T20:53:48.813Z,100467.19
2023-03-12T20:56:45.935Z,100467.97
2023-03-12T21:02:58.864Z,100479.16
2023-03-12T21:05:56.269Z,100477.28
2023-03-12T21:15:15.170Z,100470.47
2023-03-12T21:18:24.087Z,100467.88
2023-03-12T21:21:12.619Z,100481.63
2023-03-12T21:24:04.549Z,100473.91
2023-03-12T21:27:21.239Z,100484.97
2023-03-12T21:30:42.526Z,100488.41
2023-03-12T21:33:33.232Z,100465.13
2023-03-12T21:39:38.874Z,100480.53
2023-03-12T21:46:18.605Z,100440.03
2023-03-12T21:49:42.244Z,100443.41
2023-03-12T21:55:34.005Z,100436.41
2023-03-12T21:58:29.286Z,100451.00
2023-03-12T22:01:35.924Z,100463.91
2023-03-12T22:04:53.326Z,100467.28
2023-03-12T22:13:34.098Z,100470.59
2023-03-12T22:25:44.112Z,100468.69
2023-03-12T22:28:40.564Z,100468.56
2023-03-12T22:31:31.337Z,100446.25
2023-03-12T22:34:13.413Z,100448.75
2023-03-12T22:39:49.376Z,100461.59
2023-03-12T22:43:02.588Z,100446.16
2023-03-12T22:46:18.927Z,100441.00
2023-03-12T22:52:51.522Z,100472.69
2023-03-12T22:55:45.330Z,100433.03
2023-03-12T23:02:13.429Z,100449.25
2023-03-12T23:08:24.133Z,100445.53
2023-03-12T23:14:57.613Z,100448.88
2023-03-12T23:21:21.859Z,100413.69
2023-03-12T23:33:32.254Z,100433.81
2023-03-12T23:39:42.096Z,100404.56
2023-03-12T23:45:53.784Z,100405.47
2023-03-12T23:51:53.745Z,100421.72
2023-03-12T23:54:44.993Z,100417.53
